sensor_id;sensor_type;location;lat;lon;timestamp;pressure;altitude;pressure_sealevel;temperature;humidity
81379;BME280;70830;42.290;-71.354;2023-07-31T00:01:48;100679.47;;;23.25;42.91
81379;BME280;70830;42.290;-71.354;2023-07-31T00:04:14;100677.94;;;23.13;43.46
81379;BME280;70830;42.290;-71.354;2023-07-31T00:06:40;100685.56;;;22.98;44.10
81379;BME280;70830;42.290;-71.354;2023-07-31T00:09:06;100681.63;;;22.83;44.38
81379;BME280;70830;42.290;-71.354;2023-07-31T00:11:32;100679.63;;;22.66;44.96
81379;BME280;70830;42.290;-71.354;2023-07-31T00:13:58;100687.09;;;22.53;45.94
81379;BME280;70830;42.290;-71.354;2023-07-31T00:16:24;100683.81;;;22.40;46.87
81379;BME280;70830;42.290;-71.354;2023-07-31T00:18:50;100682.47;;;22.25;46.70
81379;BME280;70830;42.290;-71.354;2023-07-31T00:21:15;100687.53;;;22.09;47.57
81379;BME280;70830;42.290;-71.354;2023-07-31T00:23:41;100692.00;;;21.99;47.76
81379;BME280;70830;42.290;-71.354;2023-07-31T00:26:07;100696.75;;;21.85;48.23
81379;BME280;70830;42.290;-71.354;2023-07-31T00:28:33;100690.97;;;21.69;48.80
81379;BME280;70830;42.290;-71.354;2023-07-31T00:30:59;100695.47;;;21.59;48.96
81379;BME280;70830;42.290;-71.354;2023-07-31T00:33:25;100693.09;;;21.45;49.43
81379;BME280;70830;42.290;-71.354;2023-07-31T00:35:51;100709.03;;;21.37;49.85
81379;BME280;70830;42.290;-71.354;2023-07-31T00:38:17;100708.22;;;21.26;50.39
81379;BME280;70830;42.290;-71.354;2023-07-31T00:40:42;100712.06;;;21.12;50.52
81379;BME280;70830;42.290;-71.354;2023-07-31T00:43:08;100714.44;;;21.05;50.71
81379;BME280;70830;42.290;-71.354;2023-07-31T00:45:34;100713.34;;;20.97;51.14
81379;BME280;70830;42.290;-71.354;2023-07-31T00:48:01;100729.09;;;20.90;51.63
81379;BME280;70830;42.290;-71.354;2023-07-31T00:50:28;100735.53;;;20.88;51.83
81379;BME280;70830;42.290;-71.354;2023-07-31T00:52:54;100737.88;;;20.81;52.09
81379;BME280;70830;42.290;-71.354;2023-07-31T00:55:20;100737.78;;;20.72;52.67
81379;BME280;70830;42.290;-71.354;2023-07-31T00:57:48;100743.41;;;20.69;52.52
81379;BME280;70830;42.290;-71.354;2023-07-31T01:00:14;100745.75;;;20.62;53.30
81379;BME280;70830;42.290;-71.354;2023-07-31T01:02:40;100741.00;;;20.55;52.91
81379;BME280;70830;42.290;-71.354;2023-07-31T01:05:06;100741.00;;;20.43;53.60
81379;BME280;70830;42.290;-71.354;2023-07-31T01:07:52;100744.19;;;20.37;54.75
81379;BME280;70830;42.290;-71.354;2023-07-31T01:10:24;100747.63;;;20.28;54.96
81379;BME280;70830;42.290;-71.354;2023-07-31T01:12:53;100744.91;;;20.17;55.28
81379;BME280;70830;42.290;-71.354;2023-07-31T01:15:19;100758.91;;;20.10;55.73
81379;BME280;70830;42.290;-71.354;2023-07-31T01:17:46;100754.13;;;20.02;55.68
81379;BME280;70830;42.290;-71.354;2023-07-31T01:20:16;100745.13;;;19.92;55.13
81379;BME280;70830;42.290;-71.354;2023-07-31T01:26:03;100757.28;;;19.74;55.95
81379;BME280;70830;42.290;-71.354;2023-07-31T01:31:01;100758.97;;;19.64;56.68
81379;BME280;70830;42.290;-71.354;2023-07-31T01:33:28;100765.50;;;19.60;57.02
81379;BME280;70830;42.290;-71.354;2023-07-31T01:35:56;100768.56;;;19.55;58.32
81379;BME280;70830;42.290;-71.354;2023-07-31T01:38:22;100772.56;;;19.50;57.74
81379;BME280;70830;42.290;-71.354;2023-07-31T01:40:52;100778.38;;;19.44;58.75
81379;BME280;70830;42.290;-71.354;2023-07-31T01:43:19;100773.38;;;19.39;59.07
81379;BME280;70830;42.290;-71.354;2023-07-31T01:45:45;100767.84;;;19.30;59.60
81379;BME280;70830;42.290;-71.354;2023-07-31T01:48:11;100778.75;;;19.27;59.42
81379;BME280;70830;42.290;-71.354;2023-07-31T01:50:36;100784.81;;;19.18;60.08
81379;BME280;70830;42.290;-71.354;2023-07-31T01:53:03;100793.06;;;19.15;59.89
81379;BME280;70830;42.290;-71.354;2023-07-31T01:55:29;100786.44;;;19.08;60.84
81379;BME280;70830;42.290;-71.354;2023-07-31T01:57:55;100788.59;;;19.02;61.22
81379;BME280;70830;42.290;-71.354;2023-07-31T02:00:21;100790.16;;;18.94;61.52
81379;BME280;70830;42.290;-71.354;2023-07-31T02:02:48;100786.22;;;18.87;61.52
81379;BME280;70830;42.290;-71.354;2023-07-31T02:05:14;100795.31;;;18.84;61.86
81379;BME280;70830;42.290;-71.354;2023-07-31T02:07:40;100785.81;;;18.80;61.53
81379;BME280;70830;42.290;-71.354;2023-07-31T02:10:06;100797.69;;;18.76;62.03
81379;BME280;70830;42.290;-71.354;2023-07-31T02:12:32;100797.81;;;18.75;62.46
81379;BME280;70830;42.290;-71.354;2023-07-31T02:15:01;100792.06;;;18.68;62.77
81379;BME280;70830;42.290;-71.354;2023-07-31T02:17:27;100797.84;;;18.62;63.20
81379;BME280;70830;42.290;-71.354;2023-07-31T02:19:54;100804.91;;;18.63;63.89
81379;BME280;70830;42.290;-71.354;2023-07-31T02:22:20;100803.63;;;18.56;63.64
81379;BME280;70830;42.290;-71.354;2023-07-31T02:24:46;100800.22;;;18.54;63.73
81379;BME280;70830;42.290;-71.354;2023-07-31T02:27:12;100803.97;;;18.52;63.95
81379;BME280;70830;42.290;-71.354;2023-07-31T02:29:37;100800.88;;;18.45;64.86
81379;BME280;70830;42.290;-71.354;2023-07-31T02:32:04;100799.34;;;18.41;64.59
81379;BME280;70830;42.290;-71.354;2023-07-31T02:34:30;100799.81;;;18.35;64.40
81379;BME280;70830;42.290;-71.354;2023-07-31T02:36:56;100801.94;;;18.30;64.98
81379;BME280;70830;42.290;-71.354;2023-07-31T02:39:22;100799.59;;;18.25;65.32
81379;BME280;70830;42.290;-71.354;2023-07-31T02:41:48;100797.25;;;18.21;65.96
81379;BME280;70830;42.290;-71.354;2023-07-31T02:44:14;100795.22;;;18.12;66.35
81379;BME280;70830;42.290;-71.354;2023-07-31T02:46:40;100788.63;;;18.05;66.45
81379;BME280;70830;42.290;-71.354;2023-07-31T02:49:06;100783.59;;;18.00;66.58
81379;BME280;70830;42.290;-71.354;2023-07-31T02:51:32;100785.75;;;17.95;66.84
81379;BME280;70830;42.290;-71.354;2023-07-31T02:53:58;100793.84;;;17.94;66.95
81379;BME280;70830;42.290;-71.354;2023-07-31T02:56:24;100791.63;;;17.88;67.36
81379;BME280;70830;42.290;-71.354;2023-07-31T02:58:50;100791.06;;;17.83;67.92
81379;BME280;70830;42.290;-71.354;2023-07-31T03:01:16;100788.63;;;17.80;67.32
81379;BME280;70830;42.290;-71.354;2023-07-31T03:03:43;100790.63;;;17.76;67.76
81379;BME280;70830;42.290;-71.354;2023-07-31T03:06:09;100781.34;;;17.69;68.12
81379;BME280;70830;42.290;-71.354;2023-07-31T03:08:35;100791.19;;;17.69;68.27
81379;BME280;70830;42.290;-71.354;2023-07-31T03:11:01;100786.06;;;17.66;68.99
81379;BME280;70830;42.290;-71.354;2023-07-31T03:13:27;100794.25;;;17.63;69.58
81379;BME280;70830;42.290;-71.354;2023-07-31T03:15:53;100788.47;;;17.56;69.32
81379;BME280;70830;42.290;-71.354;2023-07-31T03:18:19;100788.72;;;17.53;69.50
81379;BME280;70830;42.290;-71.354;2023-07-31T03:20:44;100789.00;;;17.48;69.60
81379;BME280;70830;42.290;-71.354;2023-07-31T03:23:10;100794.63;;;17.44;70.43
81379;BME280;70830;42.290;-71.354;2023-07-31T03:25:37;100793.13;;;17.40;70.87
81379;BME280;70830;42.290;-71.354;2023-07-31T03:28:03;100791.72;;;17.34;70.43
81379;BME280;70830;42.290;-71.354;2023-07-31T03:30:29;100783.91;;;17.31;71.41
81379;BME280;70830;42.290;-71.354;2023-07-31T03:32:55;100775.41;;;17.26;70.96
81379;BME280;70830;42.290;-71.354;2023-07-31T03:35:21;100776.84;;;17.18;70.79
81379;BME280;70830;42.290;-71.354;2023-07-31T03:37:47;100784.09;;;17.16;71.52
81379;BME280;70830;42.290;-71.354;2023-07-31T03:40:13;100784.94;;;17.16;71.82
81379;BME280;70830;42.290;-71.354;2023-07-31T03:42:38;100783.44;;;17.12;72.06
81379;BME280;70830;42.290;-71.354;2023-07-31T03:45:05;100788.59;;;17.15;72.27
81379;BME280;70830;42.290;-71.354;2023-07-31T03:47:31;100788.66;;;17.14;72.05
81379;BME280;70830;42.290;-71.354;2023-07-31T03:49:57;100795.63;;;17.16;72.11
81379;BME280;70830;42.290;-71.354;2023-07-31T03:52:23;100788.66;;;17.14;71.56
81379;BME280;70830;42.290;-71.354;2023-07-31T03:54:49;100791.44;;;17.12;71.91
81379;BME280;70830;42.290;-71.354;2023-07-31T03:57:15;100786.41;;;17.08;71.43
81379;BME280;70830;42.290;-71.354;2023-07-31T03:59:41;100788.63;;;17.01;71.30
81379;BME280;70830;42.290;-71.354;2023-07-31T04:02:07;100796.63;;;17.01;71.58
81379;BME280;70830;42.290;-71.354;2023-07-31T04:04:32;100795.13;;;16.97;72.66
81379;BME280;70830;42.290;-71.354;2023-07-31T04:06:58;100792.75;;;16.93;72.56
81379;BME280;70830;42.290;-71.354;2023-07-31T04:09:24;100779.94;;;16.85;72.65
81379;BME280;70830;42.290;-71.354;2023-07-31T04:11:50;100790.50;;;16.87;73.30
81379;BME280;70830;42.290;-71.354;2023-07-31T04:14:16;100783.75;;;16.81;72.89
81379;BME280;70830;42.290;-71.354;2023-07-31T04:16:42;100784.06;;;16.76;73.25
81379;BME280;70830;42.290;-71.354;2023-07-31T04:19:08;100780.34;;;16.79;72.56
81379;BME280;70830;42.290;-71.354;2023-07-31T04:21:36;100785.66;;;16.79;73.24
81379;BME280;70830;42.290;-71.354;2023-07-31T04:24:02;100786.59;;;16.78;73.47
81379;BME280;70830;42.290;-71.354;2023-07-31T04:26:27;100775.44;;;16.73;73.45
81379;BME280;70830;42.290;-71.354;2023-07-31T04:28:53;100781.06;;;16.68;73.20
81379;BME280;70830;42.290;-71.354;2023-07-31T04:31:19;100788.28;;;16.66;73.11
81379;BME280;70830;42.290;-71.354;2023-07-31T04:33:45;100784.19;;;16.61;73.28
81379;BME280;70830;42.290;-71.354;2023-07-31T04:36:11;100792.38;;;16.58;73.39
81379;BME280;70830;42.290;-71.354;2023-07-31T04:38:37;100796.09;;;16.55;73.55
81379;BME280;70830;42.290;-71.354;2023-07-31T04:41:02;100792.66;;;16.53;73.72
81379;BME280;70830;42.290;-71.354;2023-07-31T04:43:29;100799.06;;;16.51;73.97
81379;BME280;70830;42.290;-71.354;2023-07-31T04:45:55;100799.97;;;16.50;73.82
81379;BME280;70830;42.290;-71.354;2023-07-31T04:48:21;100797.31;;;16.50;74.51
81379;BME280;70830;42.290;-71.354;2023-07-31T04:50:47;100798.28;;;16.49;74.88
81379;BME280;70830;42.290;-71.354;2023-07-31T04:53:13;100792.16;;;16.47;74.31
81379;BME280;70830;42.290;-71.354;2023-07-31T04:55:39;100797.41;;;16.48;74.83
81379;BME280;70830;42.290;-71.354;2023-07-31T04:58:05;100795.03;;;16.44;74.36
81379;BME280;70830;42.290;-71.354;2023-07-31T05:00:31;100791.63;;;16.42;74.12
81379;BME280;70830;42.290;-71.354;2023-07-31T05:03:15;100796.06;;;16.41;74.63
81379;BME280;70830;42.290;-71.354;2023-07-31T05:05:41;100808.72;;;16.38;75.35
81379;BME280;70830;42.290;-71.354;2023-07-31T05:08:07;100800.94;;;16.35;75.23
81379;BME280;70830;42.290;-71.354;2023-07-31T05:10:32;100799.97;;;16.36;74.82
81379;BME280;70830;42.290;-71.354;2023-07-31T05:12:58;100792.84;;;16.36;75.36
81379;BME280;70830;42.290;-71.354;2023-07-31T05:15:24;100794.75;;;16.34;75.26
81379;BME280;70830;42.290;-71.354;2023-07-31T05:17:51;100787.81;;;16.32;74.92
81379;BME280;70830;42.290;-71.354;2023-07-31T05:20:17;100789.81;;;16.28;75.07
81379;BME280;70830;42.290;-71.354;2023-07-31T05:22:43;100783.63;;;16.28;75.43
81379;BME280;70830;42.290;-71.354;2023-07-31T05:25:09;100788.09;;;16.27;75.85
81379;BME280;70830;42.290;-71.354;2023-07-31T05:27:35;100788.97;;;16.28;75.44
81379;BME280;70830;42.290;-71.354;2023-07-31T05:30:01;100793.34;;;16.29;75.88
81379;BME280;70830;42.290;-71.354;2023-07-31T05:32:27;100788.84;;;16.29;75.72
81379;BME280;70830;42.290;-71.354;2023-07-31T05:34:53;100788.09;;;16.27;76.70
81379;BME280;70830;42.290;-71.354;2023-07-31T05:37:20;100783.94;;;16.23;76.76
81379;BME280;70830;42.290;-71.354;2023-07-31T05:39:45;100789.25;;;16.23;75.79
81379;BME280;70830;42.290;-71.354;2023-07-31T05:42:11;100772.63;;;16.20;76.75
81379;BME280;70830;42.290;-71.354;2023-07-31T05:44:37;100770.91;;;16.19;76.33
81379;BME280;70830;42.290;-71.354;2023-07-31T05:47:03;100771.88;;;16.18;76.21
81379;BME280;70830;42.290;-71.354;2023-07-31T05:49:30;100765.00;;;16.13;76.26
81379;BME280;70830;42.290;-71.354;2023-07-31T05:51:56;100769.78;;;16.08;76.54
81379;BME280;70830;42.290;-71.354;2023-07-31T05:54:22;100766.28;;;16.08;76.33
81379;BME280;70830;42.290;-71.354;2023-07-31T05:56:48;100762.09;;;16.04;76.62
81379;BME280;70830;42.290;-71.354;2023-07-31T05:59:13;100770.72;;;16.07;76.76
81379;BME280;70830;42.290;-71.354;2023-07-31T06:01:39;100767.22;;;16.07;76.52
81379;BME280;70830;42.290;-71.354;2023-07-31T06:04:05;100769.22;;;16.03;77.03
81379;BME280;70830;42.290;-71.354;2023-07-31T06:06:31;100765.59;;;16.04;77.34
81379;BME280;70830;42.290;-71.354;2023-07-31T06:08:57;100758.84;;;15.99;77.02
81379;BME280;70830;42.290;-71.354;2023-07-31T06:11:23;100764.94;;;16.01;76.95
81379;BME280;70830;42.290;-71.354;2023-07-31T06:13:49;100758.97;;;15.97;78.08
81379;BME280;70830;42.290;-71.354;2023-07-31T06:16:15;100755.34;;;15.98;77.86
81379;BME280;70830;42.290;-71.354;2023-07-31T06:18:42;100758.75;;;16.00;77.63
81379;BME280;70830;42.290;-71.354;2023-07-31T06:21:09;100755.34;;;15.98;78.25
81379;BME280;70830;42.290;-71.354;2023-07-31T06:23:35;100756.09;;;16.00;77.40
81379;BME280;70830;42.290;-71.354;2023-07-31T06:26:01;100753.66;;;15.97;77.37
81379;BME280;70830;42.290;-71.354;2023-07-31T06:28:31;100759.72;;;15.99;78.00
81379;BME280;70830;42.290;-71.354;2023-07-31T06:31:00;100757.06;;;15.99;78.14
81379;BME280;70830;42.290;-71.354;2023-07-31T06:33:27;100748.50;;;15.94;77.70
81379;BME280;70830;42.290;-71.354;2023-07-31T06:35:53;100751.81;;;15.98;78.00
81379;BME280;70830;42.290;-71.354;2023-07-31T06:38:22;100755.44;;;15.97;78.31
81379;BME280;70830;42.290;-71.354;2023-07-31T06:40:49;100753.81;;;15.94;78.26
81379;BME280;70830;42.290;-71.354;2023-07-31T06:43:15;100752.09;;;15.93;77.80
81379;BME280;70830;42.290;-71.354;2023-07-31T06:45:41;100757.34;;;15.95;78.37
81379;BME280;70830;42.290;-71.354;2023-07-31T06:48:07;100751.16;;;15.94;77.98
81379;BME280;70830;42.290;-71.354;2023-07-31T06:50:33;100748.50;;;15.94;77.43
81379;BME280;70830;42.290;-71.354;2023-07-31T06:52:59;100750.31;;;15.94;77.74
81379;BME280;70830;42.290;-71.354;2023-07-31T06:55:26;100745.19;;;15.91;77.82
81379;BME280;70830;42.290;-71.354;2023-07-31T06:57:54;100740.16;;;15.86;78.05
81379;BME280;70830;42.290;-71.354;2023-07-31T07:00:21;100737.56;;;15.85;77.85
81379;BME280;70830;42.290;-71.354;2023-07-31T07:02:47;100724.66;;;15.79;78.38
81379;BME280;70830;42.290;-71.354;2023-07-31T07:05:14;100727.44;;;15.77;78.00
81379;BME280;70830;42.290;-71.354;2023-07-31T07:07:40;100724.84;;;15.76;78.54
81379;BME280;70830;42.290;-71.354;2023-07-31T07:10:07;100729.34;;;15.75;78.12
81379;BME280;70830;42.290;-71.354;2023-07-31T07:12:33;100714.50;;;15.71;78.21
81379;BME280;70830;42.290;-71.354;2023-07-31T07:15:00;100724.19;;;15.72;78.71
81379;BME280;70830;42.290;-71.354;2023-07-31T07:17:27;100716.31;;;15.71;78.31
81379;BME280;70830;42.290;-71.354;2023-07-31T07:19:53;100711.28;;;15.66;78.24
81379;BME280;70830;42.290;-71.354;2023-07-31T07:22:20;100720.03;;;15.68;77.94
81379;BME280;70830;42.290;-71.354;2023-07-31T07:24:46;100714.03;;;15.65;77.88
81379;BME280;70830;42.290;-71.354;2023-07-31T07:27:12;100710.72;;;15.61;77.76
81379;BME280;70830;42.290;-71.354;2023-07-31T07:29:38;100713.38;;;15.61;77.83
81379;BME280;70830;42.290;-71.354;2023-07-31T07:32:04;100709.19;;;15.57;78.05
81379;BME280;70830;42.290;-71.354;2023-07-31T07:34:31;100708.34;;;15.57;78.01
81379;BME280;70830;42.290;-71.354;2023-07-31T07:36:56;100704.81;;;15.56;78.02
81379;BME280;70830;42.290;-71.354;2023-07-31T07:39:22;100713.75;;;15.55;78.12
81379;BME280;70830;42.290;-71.354;2023-07-31T07:41:48;100715.66;;;15.53;77.99
81379;BME280;70830;42.290;-71.354;2023-07-31T07:44:14;100722.06;;;15.49;77.70
81379;BME280;70830;42.290;-71.354;2023-07-31T07:46:41;100713.34;;;15.47;77.80
81379;BME280;70830;42.290;-71.354;2023-07-31T07:49:07;100721.53;;;15.44;77.45
81379;BME280;70830;42.290;-71.354;2023-07-31T07:51:33;100725.19;;;15.41;77.00
81379;BME280;70830;42.290;-71.354;2023-07-31T07:53:59;100727.16;;;15.38;78.11
81379;BME280;70830;42.290;-71.354;2023-07-31T07:56:26;100723.84;;;15.34;78.12
81379;BME280;70830;42.290;-71.354;2023-07-31T07:58:53;100716.78;;;15.33;77.43
81379;BME280;70830;42.290;-71.354;2023-07-31T08:01:19;100716.91;;;15.32;77.59
81379;BME280;70830;42.290;-71.354;2023-07-31T08:03:46;100729.53;;;15.28;77.55
81379;BME280;70830;42.290;-71.354;2023-07-31T08:06:12;100731.31;;;15.28;77.01
81379;BME280;70830;42.290;-71.354;2023-07-31T08:08:38;100722.00;;;15.21;77.77
81379;BME280;70830;42.290;-71.354;2023-07-31T08:11:04;100727.31;;;15.21;77.97
81379;BME280;70830;42.290;-71.354;2023-07-31T08:13:30;100723.03;;;15.18;77.42
81379;BME280;70830;42.290;-71.354;2023-07-31T08:15:56;100730.13;;;15.18;77.43
81379;BME280;70830;42.290;-71.354;2023-07-31T08:18:22;100735.66;;;15.15;77.09
81379;BME280;70830;42.290;-71.354;2023-07-31T08:20:48;100728.72;;;15.12;77.29
81379;BME280;70830;42.290;-71.354;2023-07-31T08:23:14;100724.53;;;15.08;78.08
81379;BME280;70830;42.290;-71.354;2023-07-31T08:25:40;100717.75;;;15.03;77.97
81379;BME280;70830;42.290;-71.354;2023-07-31T08:28:06;100731.91;;;15.03;77.84
81379;BME280;70830;42.290;-71.354;2023-07-31T08:30:33;100733.78;;;15.01;77.63
81379;BME280;70830;42.290;-71.354;2023-07-31T08:32:59;100738.41;;;14.98;78.00
81379;BME280;70830;42.290;-71.354;2023-07-31T08:35:26;100742.03;;;14.97;78.29
81379;BME280;70830;42.290;-71.354;2023-07-31T08:37:54;100744.84;;;14.94;77.72
81379;BME280;70830;42.290;-71.354;2023-07-31T08:40:20;100751.13;;;14.93;77.50
81379;BME280;70830;42.290;-71.354;2023-07-31T08:42:53;100748.72;;;14.88;77.90
81379;BME280;70830;42.290;-71.354;2023-07-31T08:45:20;100757.47;;;14.90;78.27
81379;BME280;70830;42.290;-71.354;2023-07-31T08:47:50;100754.91;;;14.89;77.56
81379;BME280;70830;42.290;-71.354;2023-07-31T08:50:19;100752.56;;;14.83;78.36
81379;BME280;70830;42.290;-71.354;2023-07-31T08:52:50;100760.38;;;14.86;78.58
81379;BME280;70830;42.290;-71.354;2023-07-31T08:55:16;100761.41;;;14.83;78.16
81379;BME280;70830;42.290;-71.354;2023-07-31T08:57:43;100756.97;;;14.84;78.92
81379;BME280;70830;42.290;-71.354;2023-07-31T09:00:11;100756.25;;;14.80;78.68
81379;BME280;70830;42.290;-71.354;2023-07-31T09:02:51;100761.66;;;14.79;78.44
81379;BME280;70830;42.290;-71.354;2023-07-31T09:05:19;100766.03;;;14.80;78.34
81379;BME280;70830;42.290;-71.354;2023-07-31T09:07:47;100759.00;;;14.79;78.85
81379;BME280;70830;42.290;-71.354;2023-07-31T09:10:13;100758.25;;;14.77;78.45
81379;BME280;70830;42.290;-71.354;2023-07-31T09:12:39;100766.22;;;14.77;78.40
81379;BME280;70830;42.290;-71.354;2023-07-31T09:15:07;100765.28;;;14.78;78.99
81379;BME280;70830;42.290;-71.354;2023-07-31T09:17:35;100760.91;;;14.77;78.38
81379;BME280;70830;42.290;-71.354;2023-07-31T09:20:18;100753.88;;;14.76;78.85
81379;BME280;70830;42.290;-71.354;2023-07-31T09:22:45;100745.50;;;14.67;78.00
81379;BME280;70830;42.290;-71.354;2023-07-31T09:27:57;100756.88;;;14.69;78.83
81379;BME280;70830;42.290;-71.354;2023-07-31T09:30:23;100761.41;;;14.67;78.47
81379;BME280;70830;42.290;-71.354;2023-07-31T09:32:51;100757.41;;;14.60;78.54
81379;BME280;70830;42.290;-71.354;2023-07-31T09:35:30;100753.88;;;14.60;78.81
81379;BME280;70830;42.290;-71.354;2023-07-31T09:38:08;100766.13;;;14.62;79.08
81379;BME280;70830;42.290;-71.354;2023-07-31T09:40:43;100760.06;;;14.60;79.19
81379;BME280;70830;42.290;-71.354;2023-07-31T09:43:11;100768.97;;;14.59;78.81
81379;BME280;70830;42.290;-71.354;2023-07-31T09:45:38;100769.03;;;14.58;79.26
81379;BME280;70830;42.290;-71.354;2023-07-31T09:48:16;100770.84;;;14.57;79.28
81379;BME280;70830;42.290;-71.354;2023-07-31T09:50:45;100764.69;;;14.57;78.97
81379;BME280;70830;42.290;-71.354;2023-07-31T09:53:11;100766.47;;;14.56;78.37
81379;BME280;70830;42.290;-71.354;2023-07-31T09:55:38;100768.97;;;14.59;78.73
81379;BME280;70830;42.290;-71.354;2023-07-31T09:58:06;100765.72;;;14.54;79.08
81379;BME280;70830;42.290;-71.354;2023-07-31T10:00:32;100774.28;;;14.59;78.28
81379;BME280;70830;42.290;-71.354;2023-07-31T10:03:01;100772.44;;;14.60;78.48
81379;BME280;70830;42.290;-71.354;2023-07-31T10:05:31;100775.97;;;14.60;78.36
81379;BME280;70830;42.290;-71.354;2023-07-31T10:07:59;100775.97;;;14.60;78.47
81379;BME280;70830;42.290;-71.354;2023-07-31T10:10:26;100777.00;;;14.58;78.38
81379;BME280;70830;42.290;-71.354;2023-07-31T10:12:53;100781.13;;;14.63;79.31
81379;BME280;70830;42.290;-71.354;2023-07-31T10:15:20;100779.91;;;14.69;78.61
81379;BME280;70830;42.290;-71.354;2023-07-31T10:17:49;100778.34;;;14.81;78.78
81379;BME280;70830;42.290;-71.354;2023-07-31T10:20:16;100781.09;;;14.95;78.33
81379;BME280;70830;42.290;-71.354;2023-07-31T10:22:43;100787.84;;;15.00;78.70
81379;BME280;70830;42.290;-71.354;2023-07-31T10:25:12;100792.72;;;15.08;78.85
81379;BME280;70830;42.290;-71.354;2023-07-31T10:27:41;100794.94;;;15.15;78.42
81379;BME280;70830;42.290;-71.354;2023-07-31T10:30:13;100797.13;;;15.23;78.37
81379;BME280;70830;42.290;-71.354;2023-07-31T10:32:41;100798.50;;;15.30;78.75
81379;BME280;70830;42.290;-71.354;2023-07-31T10:35:09;100797.09;;;15.38;78.17
81379;BME280;70830;42.290;-71.354;2023-07-31T10:37:42;100804.66;;;15.46;77.89
81379;BME280;70830;42.290;-71.354;2023-07-31T10:40:16;100794.50;;;15.53;77.89
81379;BME280;70830;42.290;-71.354;2023-07-31T10:42:55;100791.22;;;15.63;77.16
81379;BME280;70830;42.290;-71.354;2023-07-31T10:48:04;100796.94;;;15.85;76.22
81379;BME280;70830;42.290;-71.354;2023-07-31T10:50:32;100793.63;;;15.96;76.77
81379;BME280;70830;42.290;-71.354;2023-07-31T10:53:02;100799.06;;;16.08;76.20
81379;BME280;70830;42.290;-71.354;2023-07-31T10:55:42;100797.41;;;16.20;75.26
81379;BME280;70830;42.290;-71.354;2023-07-31T10:58:10;100804.53;;;16.34;75.75
81379;BME280;70830;42.290;-71.354;2023-07-31T11:00:38;100814.59;;;16.43;74.85
81379;BME280;70830;42.290;-71.354;2023-07-31T11:03:09;100812.38;;;16.51;74.40
81379;BME280;70830;42.290;-71.354;2023-07-31T11:05:49;100816.13;;;16.75;74.44
81379;BME280;70830;42.290;-71.354;2023-07-31T11:08:17;100817.03;;;17.15;73.38
81379;BME280;70830;42.290;-71.354;2023-07-31T11:10:44;100818.59;;;17.71;72.30
81379;BME280;70830;42.290;-71.354;2023-07-31T11:13:11;100820.31;;;18.22;70.92
81379;BME280;70830;42.290;-71.354;2023-07-31T11:15:38;100827.97;;;18.64;68.31
81379;BME280;70830;42.290;-71.354;2023-07-31T11:18:04;100821.41;;;19.04;67.27
81379;BME280;70830;42.290;-71.354;2023-07-31T11:20:35;100826.44;;;19.33;65.96
81379;BME280;70830;42.290;-71.354;2023-07-31T11:23:03;100827.81;;;19.62;64.56
81379;BME280;70830;42.290;-71.354;2023-07-31T11:25:30;100823.59;;;19.82;63.65
81379;BME280;70830;42.290;-71.354;2023-07-31T11:28:04;100825.69;;;20.00;63.02
81379;BME280;70830;42.290;-71.354;2023-07-31T11:30:30;100837.19;;;20.24;64.18
81379;BME280;70830;42.290;-71.354;2023-07-31T11:32:56;100834.75;;;20.55;63.49
81379;BME280;70830;42.290;-71.354;2023-07-31T11:35:22;100843.63;;;20.88;62.08
81379;BME280;70830;42.290;-71.354;2023-07-31T11:37:48;100844.16;;;21.25;61.78
81379;BME280;70830;42.290;-71.354;2023-07-31T11:40:15;100845.28;;;21.54;60.75
81379;BME280;70830;42.290;-71.354;2023-07-31T11:42:41;100848.94;;;21.85;60.30
81379;BME280;70830;42.290;-71.354;2023-07-31T11:45:09;100854.41;;;22.25;58.89
81379;BME280;70830;42.290;-71.354;2023-07-31T11:47:37;100856.59;;;22.61;57.90
81379;BME280;70830;42.290;-71.354;2023-07-31T11:50:10;100856.53;;;22.91;55.19
81379;BME280;70830;42.290;-71.354;2023-07-31T11:52:41;100854.91;;;23.00;55.77
81379;BME280;70830;42.290;-71.354;2023-07-31T11:55:09;100854.63;;;23.12;54.73
81379;BME280;70830;42.290;-71.354;2023-07-31T11:57:39;100850.28;;;23.30;54.35
81379;BME280;70830;42.290;-71.354;2023-07-31T12:00:08;100860.22;;;23.59;53.35
81379;BME280;70830;42.290;-71.354;2023-07-31T12:02:37;100860.06;;;23.70;52.98
81379;BME280;70830;42.290;-71.354;2023-07-31T12:05:06;100862.75;;;23.89;50.76
81379;BME280;70830;42.290;-71.354;2023-07-31T12:07:54;100867.31;;;23.79;50.13
81379;BME280;70830;42.290;-71.354;2023-07-31T12:10:31;100865.59;;;23.78;51.60
81379;BME280;70830;42.290;-71.354;2023-07-31T12:13:19;100857.66;;;24.05;49.76
81379;BME280;70830;42.290;-71.354;2023-07-31T12:15:46;100864.84;;;24.33;50.35
81379;BME280;70830;42.290;-71.354;2023-07-31T12:18:14;100861.81;;;24.46;49.26
81379;BME280;70830;42.290;-71.354;2023-07-31T12:23:39;100862.63;;;25.20;47.99
81379;BME280;70830;42.290;-71.354;2023-07-31T12:26:11;100868.19;;;25.54;46.83
81379;BME280;70830;42.290;-71.354;2023-07-31T12:31:08;100869.66;;;25.83;46.95
81379;BME280;70830;42.290;-71.354;2023-07-31T12:33:36;100867.78;;;26.19;45.54
81379;BME280;70830;42.290;-71.354;2023-07-31T12:36:10;100876.78;;;26.53;44.99
81379;BME280;70830;42.290;-71.354;2023-07-31T12:38:36;100869.13;;;26.74;44.37
81379;BME280;70830;42.290;-71.354;2023-07-31T12:41:02;100866.56;;;26.73;43.60
81379;BME280;70830;42.290;-71.354;2023-07-31T12:43:28;100873.25;;;26.61;43.72
81379;BME280;70830;42.290;-71.354;2023-07-31T12:45:54;100861.94;;;26.65;43.86
81379;BME280;70830;42.290;-71.354;2023-07-31T12:48:23;100865.19;;;27.03;43.31